sensor_id;sensor_type;location;lat;lon;timestamp;pressure;altitude;pressure_sealevel;temperature;humidity
76853;BME280;65825;52.232;10.566;2023-08-17T00:01:40;101109.78;;;18.64;100.00
76853;BME280;65825;52.232;10.566;2023-08-17T00:04:06;101105.28;;;18.65;100.00
76853;BME280;65825;52.232;10.566;2023-08-17T00:06:32;101102.59;;;18.65;100.00
76853;BME280;65825;52.232;10.566;2023-08-17T00:08:57;101092.19;;;18.60;100.00
76853;BME280;65825;52.232;10.566;2023-08-17T00:11:22;101096.50;;;18.63;100.00
76853;BME280;65825;52.232;10.566;2023-08-17T00:13:48;101099.63;;;18.55;100.00
76853;BME280;65825;52.232;10.566;2023-08-17T00:16:13;101096.66;;;18.60;100.00
76853;BME280;65825;52.232;10.566;2023-08-17T00:18:38;101088.03;;;18.70;100.00
76853;BME280;65825;52.232;10.566;2023-08-17T00:21:04;101080.44;;;18.63;100.00
76853;BME280;65825;52.232;10.566;2023-08-17T00:23:29;101082.25;;;18.62;100.00
76853;BME280;65825;52.232;10.566;2023-08-17T00:25:54;101074.91;;;18.66;100.00
76853;BME280;65825;52.232;10.566;2023-08-17T00:28:19;101075.69;;;18.68;100.00
76853;BME280;65825;52.232;10.566;2023-08-17T00:30:45;101071.47;;;18.64;100.00
76853;BME280;65825;52.232;10.566;2023-08-17T00:33:10;101070.16;;;18.71;100.00
76853;BME280;65825;52.232;10.566;2023-08-17T00:35:35;101079.22;;;18.68;100.00
76853;BME280;65825;52.232;10.566;2023-08-17T00:38:01;101082.16;;;18.64;100.00
76853;BME280;65825;52.232;10.566;2023-08-17T00:40:26;101083.03;;;18.64;100.00
76853;BME280;65825;52.232;10.566;2023-08-17T00:42:51;101074.66;;;18.70;100.00
76853;BME280;65825;52.232;10.566;2023-08-17T00:45:17;101077.56;;;18.66;100.00
76853;BME280;65825;52.232;10.566;2023-08-17T00:47:42;101067.06;;;18.63;100.00
76853;BME280;65825;52.232;10.566;2023-08-17T00:50:08;101073.56;;;18.59;100.00
76853;BME280;65825;52.232;10.566;2023-08-17T00:52:34;101071.75;;;18.59;100.00
76853;BME280;65825;52.232;10.566;2023-08-17T00:55:00;101074.59;;;18.56;100.00
76853;BME280;65825;52.232;10.566;2023-08-17T00:57:26;101071.16;;;18.54;100.00
76853;BME280;65825;52.232;10.566;2023-08-17T00:59:52;101077.78;;;18.63;100.00
76853;BME280;65825;52.232;10.566;2023-08-17T01:02:17;101071.75;;;18.59;100.00
76853;BME280;65825;52.232;10.566;2023-08-17T01:04:43;101077.56;;;18.66;100.00
76853;BME280;65825;52.232;10.566;2023-08-17T01:07:08;101073.69;;;18.71;100.00
76853;BME280;65825;52.232;10.566;2023-08-17T01:09:33;101070.50;;;18.80;100.00
76853;BME280;65825;52.232;10.566;2023-08-17T01:12:24;101073.84;;;18.84;100.00
76853;BME280;65825;52.232;10.566;2023-08-17T01:15:12;101073.34;;;18.77;100.00
76853;BME280;65825;52.232;10.566;2023-08-17T01:18:04;101071.78;;;18.73;100.00
76853;BME280;65825;52.232;10.566;2023-08-17T01:20:33;101071.97;;;18.70;100.00
76853;BME280;65825;52.232;10.566;2023-08-17T01:23:06;101085.59;;;18.66;100.00
76853;BME280;65825;52.232;10.566;2023-08-17T01:25:32;101092.28;;;18.59;100.00
76853;BME280;65825;52.232;10.566;2023-08-17T01:28:02;101101.28;;;18.72;100.00
76853;BME280;65825;52.232;10.566;2023-08-17T01:30:27;101114.56;;;18.73;100.00
76853;BME280;65825;52.232;10.566;2023-08-17T01:33:08;101120.81;;;18.58;100.00
76853;BME280;65825;52.232;10.566;2023-08-17T01:35:54;101130.59;;;18.59;100.00
76853;BME280;65825;52.232;10.566;2023-08-17T01:38:24;101133.31;;;18.73;100.00
76853;BME280;65825;52.232;10.566;2023-08-17T01:40:51;101156.34;;;18.76;100.00
76853;BME280;65825;52.232;10.566;2023-08-17T01:43:18;101148.78;;;18.53;100.00
76853;BME280;65825;52.232;10.566;2023-08-17T01:45:44;101158.41;;;18.24;100.00
76853;BME280;65825;52.232;10.566;2023-08-17T01:48:09;101149.06;;;18.00;100.00
76853;BME280;65825;52.232;10.566;2023-08-17T01:50:34;101132.72;;;18.22;100.00
76853;BME280;65825;52.232;10.566;2023-08-17T01:52:59;101142.03;;;18.30;100.00
76853;BME280;65825;52.232;10.566;2023-08-17T01:55:25;101122.47;;;18.45;100.00
76853;BME280;65825;52.232;10.566;2023-08-17T01:57:51;101121.69;;;18.43;100.00
76853;BME280;65825;52.232;10.566;2023-08-17T02:00:17;101122.41;;;18.47;100.00
76853;BME280;65825;52.232;10.566;2023-08-17T02:02:42;101120.66;;;18.46;100.00
76853;BME280;65825;52.232;10.566;2023-08-17T02:05:08;101112.56;;;18.32;100.00
76853;BME280;65825;52.232;10.566;2023-08-17T02:07:33;101106.00;;;18.37;100.00
76853;BME280;65825;52.232;10.566;2023-08-17T02:09:58;101103.91;;;18.42;100.00
76853;BME280;65825;52.232;10.566;2023-08-17T02:12:24;101098.09;;;18.36;100.00
76853;BME280;65825;52.232;10.566;2023-08-17T02:14:49;101104.59;;;18.46;100.00
76853;BME280;65825;52.232;10.566;2023-08-17T02:17:14;101092.78;;;18.50;100.00
76853;BME280;65825;52.232;10.566;2023-08-17T02:19:42;101093.75;;;18.49;100.00
76853;BME280;65825;52.232;10.566;2023-08-17T02:22:07;101077.38;;;18.39;100.00
76853;BME280;65825;52.232;10.566;2023-08-17T02:24:32;101081.50;;;18.29;100.00
76853;BME280;65825;52.232;10.566;2023-08-17T02:26:57;101087.28;;;18.37;100.00
76853;BME280;65825;52.232;10.566;2023-08-17T02:29:23;101084.44;;;18.40;100.00
76853;BME280;65825;52.232;10.566;2023-08-17T02:31:48;101082.53;;;18.42;100.00
76853;BME280;65825;52.232;10.566;2023-08-17T02:34:13;101069.38;;;18.39;100.00
76853;BME280;65825;52.232;10.566;2023-08-17T02:36:38;101066.31;;;18.30;100.00
76853;BME280;65825;52.232;10.566;2023-08-17T02:39:04;101057.88;;;18.37;100.00
76853;BME280;65825;52.232;10.566;2023-08-17T02:41:29;101052.09;;;18.29;100.00
76853;BME280;65825;52.232;10.566;2023-08-17T02:43:57;101048.47;;;18.30;100.00
76853;BME280;65825;52.232;10.566;2023-08-17T02:46:23;101039.56;;;18.30;100.00
76853;BME280;65825;52.232;10.566;2023-08-17T02:48:48;101038.50;;;18.34;100.00
76853;BME280;65825;52.232;10.566;2023-08-17T02:51:14;101029.44;;;18.36;100.00
76853;BME280;65825;52.232;10.566;2023-08-17T02:53:40;101038.56;;;18.48;100.00
76853;BME280;65825;52.232;10.566;2023-08-17T02:56:05;101036.13;;;18.43;100.00
76853;BME280;65825;52.232;10.566;2023-08-17T02:58:31;101024.97;;;18.37;100.00
76853;BME280;65825;52.232;10.566;2023-08-17T03:00:56;101017.69;;;18.39;100.00
76853;BME280;65825;52.232;10.566;2023-08-17T03:03:21;101021.91;;;18.43;100.00
76853;BME280;65825;52.232;10.566;2023-08-17T03:05:46;101014.75;;;18.43;100.00
76853;BME280;65825;52.232;10.566;2023-08-17T03:08:12;101023.34;;;18.48;100.00
76853;BME280;65825;52.232;10.566;2023-08-17T03:10:38;101028.81;;;18.47;100.00
76853;BME280;65825;52.232;10.566;2023-08-17T03:13:03;101018.59;;;18.53;100.00
76853;BME280;65825;52.232;10.566;2023-08-17T03:15:28;101015.00;;;18.54;100.00
76853;BME280;65825;52.232;10.566;2023-08-17T03:17:53;101007.16;;;18.51;100.00
76853;BME280;65825;52.232;10.566;2023-08-17T03:20:19;101012.59;;;18.50;100.00
76853;BME280;65825;52.232;10.566;2023-08-17T03:22:44;101006.28;;;18.51;100.00
76853;BME280;65825;52.232;10.566;2023-08-17T03:25:09;101006.28;;;18.51;100.00
76853;BME280;65825;52.232;10.566;2023-08-17T03:27:34;101001.88;;;18.50;100.00
76853;BME280;65825;52.232;10.566;2023-08-17T03:30:00;101000.00;;;18.52;100.00
76853;BME280;65825;52.232;10.566;2023-08-17T03:32:25;100998.25;;;18.51;100.00
76853;BME280;65825;52.232;10.566;2023-08-17T03:34:50;101015.16;;;18.51;100.00
76853;BME280;65825;52.232;10.566;2023-08-17T03:37:16;101008.88;;;18.52;100.00
76853;BME280;65825;52.232;10.566;2023-08-17T03:39:41;101015.09;;;18.53;100.00
76853;BME280;65825;52.232;10.566;2023-08-17T03:42:07;101020.34;;;18.54;100.00
76853;BME280;65825;52.232;10.566;2023-08-17T03:44:32;101026.81;;;18.50;100.00
76853;BME280;65825;52.232;10.566;2023-08-17T03:46:57;101021.84;;;18.44;100.00
76853;BME280;65825;52.232;10.566;2023-08-17T03:49:22;101022.50;;;18.48;100.00
76853;BME280;65825;52.232;10.566;2023-08-17T03:51:48;101023.28;;;18.50;100.00
76853;BME280;65825;52.232;10.566;2023-08-17T03:54:13;101023.47;;;18.47;100.00
76853;BME280;65825;52.232;10.566;2023-08-17T03:56:38;101036.03;;;18.45;100.00
76853;BME280;65825;52.232;10.566;2023-08-17T03:59:03;101038.47;;;18.49;100.00
76853;BME280;65825;52.232;10.566;2023-08-17T04:01:29;101026.75;;;18.52;100.00
76853;BME280;65825;52.232;10.566;2023-08-17T04:03:54;101030.75;;;18.59;100.00
76853;BME280;65825;52.232;10.566;2023-08-17T04:06:19;101039.06;;;18.54;100.00
76853;BME280;65825;52.232;10.566;2023-08-17T04:08:45;101028.09;;;18.59;100.00
76853;BME280;65825;52.232;10.566;2023-08-17T04:11:11;101034.91;;;18.64;100.00
76853;BME280;65825;52.232;10.566;2023-08-17T04:13:36;101029.06;;;18.58;100.00
76853;BME280;65825;52.232;10.566;2023-08-17T04:16:01;101029.88;;;18.58;100.00
76853;BME280;65825;52.232;10.566;2023-08-17T04:18:26;101026.09;;;18.62;100.00
76853;BME280;65825;52.232;10.566;2023-08-17T04:20:52;101026.59;;;18.69;100.00
76853;BME280;65825;52.232;10.566;2023-08-17T04:23:17;101023.16;;;18.67;100.00
76853;BME280;65825;52.232;10.566;2023-08-17T04:25:43;101020.50;;;18.67;100.00
76853;BME280;65825;52.232;10.566;2023-08-17T04:28:09;101024.88;;;18.68;100.00
76853;BME280;65825;52.232;10.566;2023-08-17T04:30:34;101032.13;;;18.66;100.00
76853;BME280;65825;52.232;10.566;2023-08-17T04:32:59;101040.50;;;18.60;100.00
76853;BME280;65825;52.232;10.566;2023-08-17T04:35:24;101032.75;;;18.55;100.00
76853;BME280;65825;52.232;10.566;2023-08-17T04:37:50;101039.66;;;18.59;100.00
76853;BME280;65825;52.232;10.566;2023-08-17T04:40:15;101034.91;;;18.64;100.00
76853;BME280;65825;52.232;10.566;2023-08-17T04:42:41;101041.09;;;18.65;100.00
76853;BME280;65825;52.232;10.566;2023-08-17T04:45:06;101045.31;;;18.69;100.00
76853;BME280;65825;52.232;10.566;2023-08-17T04:47:32;101040.47;;;18.75;100.00
76853;BME280;65825;52.232;10.566;2023-08-17T04:49:57;101052.59;;;18.81;100.00
76853;BME280;65825;52.232;10.566;2023-08-17T04:52:22;101048.66;;;18.72;100.00
76853;BME280;65825;52.232;10.566;2023-08-17T04:54:47;101042.56;;;18.70;100.00
76853;BME280;65825;52.232;10.566;2023-08-17T04:57:13;101042.66;;;18.69;100.00
76853;BME280;65825;52.232;10.566;2023-08-17T04:59:38;101043.91;;;18.77;100.00
76853;BME280;65825;52.232;10.566;2023-08-17T05:02:03;101044.19;;;18.73;100.00
76853;BME280;65825;52.232;10.566;2023-08-17T05:04:30;101033.03;;;18.80;100.00
76853;BME280;65825;52.232;10.566;2023-08-17T05:06:56;101036.63;;;18.79;100.00
76853;BME280;65825;52.232;10.566;2023-08-17T05:09:21;101041.53;;;18.87;100.00
76853;BME280;65825;52.232;10.566;2023-08-17T05:11:46;101053.66;;;18.78;100.00
76853;BME280;65825;52.232;10.566;2023-08-17T05:14:12;101045.00;;;18.89;100.00
76853;BME280;65825;52.232;10.566;2023-08-17T05:16:37;101045.66;;;18.92;100.00
76853;BME280;65825;52.232;10.566;2023-08-17T05:19:03;101045.84;;;18.89;100.00
76853;BME280;65825;52.232;10.566;2023-08-17T05:21:28;101042.91;;;18.94;100.00
76853;BME280;65825;52.232;10.566;2023-08-17T05:23:54;101047.94;;;18.84;100.00
76853;BME280;65825;52.232;10.566;2023-08-17T05:26:20;101042.84;;;18.80;100.00
76853;BME280;65825;52.232;10.566;2023-08-17T05:28:45;101045.16;;;18.86;100.00
76853;BME280;65825;52.232;10.566;2023-08-17T05:31:10;101040.69;;;18.86;100.00
76853;BME280;65825;52.232;10.566;2023-08-17T05:33:35;101042.41;;;18.87;100.00
76853;BME280;65825;52.232;10.566;2023-08-17T05:36:01;101048.88;;;18.83;100.00
76853;BME280;65825;52.232;10.566;2023-08-17T05:38:26;101048.81;;;18.85;100.00
76853;BME280;65825;52.232;10.566;2023-08-17T05:40:55;101054.91;;;18.87;100.00
76853;BME280;65825;52.232;10.566;2023-08-17T05:43:20;101059.91;;;18.93;100.00
76853;BME280;65825;52.232;10.566;2023-08-17T05:45:45;101063.34;;;18.95;100.00
76853;BME280;65825;52.232;10.566;2023-08-17T05:48:10;101060.75;;;18.93;100.00
76853;BME280;65825;52.232;10.566;2023-08-17T05:50:36;101063.44;;;18.93;100.00
76853;BME280;65825;52.232;10.566;2023-08-17T05:53:01;101063.94;;;19.00;100.00
76853;BME280;65825;52.232;10.566;2023-08-17T05:55:26;101062.19;;;18.85;100.00
76853;BME280;65825;52.232;10.566;2023-08-17T05:57:51;101060.84;;;18.92;100.00
76853;BME280;65825;52.232;10.566;2023-08-17T06:00:16;101059.53;;;18.99;100.00
76853;BME280;65825;52.232;10.566;2023-08-17T06:02:42;101058.97;;;18.94;100.00
76853;BME280;65825;52.232;10.566;2023-08-17T06:05:08;101062.97;;;19.01;100.00
76853;BME280;65825;52.232;10.566;2023-08-17T06:07:34;101052.44;;;18.98;100.00
76853;BME280;65825;52.232;10.566;2023-08-17T06:09:59;101057.63;;;19.01;100.00
76853;BME280;65825;52.232;10.566;2023-08-17T06:12:24;101053.28;;;18.84;100.00
76853;BME280;65825;52.232;10.566;2023-08-17T06:14:50;101055.41;;;18.93;100.00
76853;BME280;65825;52.232;10.566;2023-08-17T06:17:15;101056.75;;;18.86;100.00
76853;BME280;65825;52.232;10.566;2023-08-17T06:19:40;101061.72;;;18.92;100.00
76853;BME280;65825;52.232;10.566;2023-08-17T06:22:05;101058.75;;;18.83;100.00
76853;BME280;65825;52.232;10.566;2023-08-17T06:24:31;101058.16;;;18.78;100.00
76853;BME280;65825;52.232;10.566;2023-08-17T06:26:56;101066.84;;;18.81;100.00
76853;BME280;65825;52.232;10.566;2023-08-17T06:29:21;101064.09;;;18.97;100.00
76853;BME280;65825;52.232;10.566;2023-08-17T06:31:47;101063.66;;;19.04;100.00
76853;BME280;65825;52.232;10.566;2023-08-17T06:34:12;101056.53;;;18.89;100.00
76853;BME280;65825;52.232;10.566;2023-08-17T06:36:38;101063.75;;;19.03;100.00
76853;BME280;65825;52.232;10.566;2023-08-17T06:39:03;101069.41;;;19.12;100.00
76853;BME280;65825;52.232;10.566;2023-08-17T06:41:29;101073.97;;;19.10;100.00
76853;BME280;65825;52.232;10.566;2023-08-17T06:43:54;101075.59;;;19.13;100.00
76853;BME280;65825;52.232;10.566;2023-08-17T06:46:19;101077.16;;;19.17;100.00
76853;BME280;65825;52.232;10.566;2023-08-17T06:48:45;101072.47;;;19.20;100.00
76853;BME280;65825;52.232;10.566;2023-08-17T06:51:10;101079.84;;;19.17;100.00
76853;BME280;65825;52.232;10.566;2023-08-17T06:53:35;101075.25;;;19.19;100.00
76853;BME280;65825;52.232;10.566;2023-08-17T06:56:00;101082.00;;;19.10;100.00
76853;BME280;65825;52.232;10.566;2023-08-17T06:58:26;101068.91;;;19.06;100.00
76853;BME280;65825;52.232;10.566;2023-08-17T07:00:51;101076.19;;;19.04;100.00
76853;BME280;65825;52.232;10.566;2023-08-17T07:03:16;101072.25;;;19.09;100.00
76853;BME280;65825;52.232;10.566;2023-08-17T07:05:42;101071.63;;;19.20;100.00
76853;BME280;65825;52.232;10.566;2023-08-17T07:08:07;101066.97;;;19.23;100.00
76853;BME280;65825;52.232;10.566;2023-08-17T07:10:32;101077.88;;;19.34;100.00
76853;BME280;65825;52.232;10.566;2023-08-17T07:12:57;101087.47;;;19.38;100.00
76853;BME280;65825;52.232;10.566;2023-08-17T07:15:23;101076.91;;;19.35;100.00
76853;BME280;65825;52.232;10.566;2023-08-17T07:17:48;101080.84;;;19.44;100.00
76853;BME280;65825;52.232;10.566;2023-08-17T07:20:13;101077.81;;;19.20;100.00
76853;BME280;65825;52.232;10.566;2023-08-17T07:22:39;101081.63;;;19.32;100.00
76853;BME280;65825;52.232;10.566;2023-08-17T07:25:04;101083.72;;;19.27;100.00
76853;BME280;65825;52.232;10.566;2023-08-17T07:27:29;101086.38;;;19.27;100.00
76853;BME280;65825;52.232;10.566;2023-08-17T07:29:55;101095.81;;;19.18;100.00
76853;BME280;65825;52.232;10.566;2023-08-17T07:32:20;101088.97;;;19.28;100.00
76853;BME280;65825;52.232;10.566;2023-08-17T07:34:46;101086.97;;;19.32;100.00
76853;BME280;65825;52.232;10.566;2023-08-17T07:37:11;101096.53;;;19.36;100.00
76853;BME280;65825;52.232;10.566;2023-08-17T07:39:37;101093.78;;;19.37;100.00
76853;BME280;65825;52.232;10.566;2023-08-17T07:42:02;101089.81;;;19.29;100.00
76853;BME280;65825;52.232;10.566;2023-08-17T07:44:27;101096.50;;;19.22;100.00
76853;BME280;65825;52.232;10.566;2023-08-17T07:46:54;101087.63;;;19.35;100.00
76853;BME280;65825;52.232;10.566;2023-08-17T07:49:19;101087.25;;;19.41;100.00
76853;BME280;65825;52.232;10.566;2023-08-17T07:51:45;101087.25;;;19.41;100.00
76853;BME280;65825;52.232;10.566;2023-08-17T07:54:10;101093.56;;;19.40;100.00
76853;BME280;65825;52.232;10.566;2023-08-17T07:56:35;101088.88;;;19.44;100.00
76853;BME280;65825;52.232;10.566;2023-08-17T07:59:01;101084.00;;;19.50;100.00
76853;BME280;65825;52.232;10.566;2023-08-17T08:01:26;101089.88;;;19.57;100.00
76853;BME280;65825;52.232;10.566;2023-08-17T08:03:51;101095.22;;;19.71;100.00
76853;BME280;65825;52.232;10.566;2023-08-17T08:06:16;101088.91;;;19.72;100.00
76853;BME280;65825;52.232;10.566;2023-08-17T08:08:42;101091.19;;;19.64;100.00
76853;BME280;65825;52.232;10.566;2023-08-17T08:11:07;101093.88;;;19.78;100.00
76853;BME280;65825;52.232;10.566;2023-08-17T08:13:32;101091.59;;;19.72;100.00
76853;BME280;65825;52.232;10.566;2023-08-17T08:16:00;101095.78;;;19.90;100.00
76853;BME280;65825;52.232;10.566;2023-08-17T08:18:26;101095.41;;;20.10;100.00
76853;BME280;65825;52.232;10.566;2023-08-17T08:20:51;101094.72;;;20.20;100.00
76853;BME280;65825;52.232;10.566;2023-08-17T08:23:16;101097.56;;;20.31;100.00
76853;BME280;65825;52.232;10.566;2023-08-17T08:25:41;101096.22;;;20.24;100.00
76853;BME280;65825;52.232;10.566;2023-08-17T08:28:07;101100.53;;;20.27;100.00
76853;BME280;65825;52.232;10.566;2023-08-17T08:30:34;101104.97;;;20.14;100.00
76853;BME280;65825;52.232;10.566;2023-08-17T08:32:59;101104.31;;;20.10;100.00
76853;BME280;65825;52.232;10.566;2023-08-17T08:35:25;101095.66;;;20.19;100.00
76853;BME280;65825;52.232;10.566;2023-08-17T08:37:50;101097.69;;;20.16;100.00
76853;BME280;65825;52.232;10.566;2023-08-17T08:40:16;101093.75;;;20.21;100.00
76853;BME280;65825;52.232;10.566;2023-08-17T08:42:42;101097.06;;;20.39;100.00
76853;BME280;65825;52.232;10.566;2023-08-17T08:45:07;101089.72;;;20.28;100.00
76853;BME280;65825;52.232;10.566;2023-08-17T08:47:34;101091.97;;;20.34;100.00
76853;BME280;65825;52.232;10.566;2023-08-17T08:50:02;101102.19;;;20.56;100.00
76853;BME280;65825;52.232;10.566;2023-08-17T08:52:34;101092.69;;;20.50;100.00
76853;BME280;65825;52.232;10.566;2023-08-17T08:55:05;101096.31;;;20.63;100.00
76853;BME280;65825;52.232;10.566;2023-08-17T08:57:34;101092.00;;;20.61;100.00
76853;BME280;65825;52.232;10.566;2023-08-17T08:59:59;101087.84;;;20.69;100.00
76853;BME280;65825;52.232;10.566;2023-08-17T09:02:24;101084.56;;;20.78;100.00
76853;BME280;65825;52.232;10.566;2023-08-17T09:04:50;101091.25;;;20.59;100.00
76853;BME280;65825;52.232;10.566;2023-08-17T09:07:15;101092.09;;;20.59;100.00
76853;BME280;65825;52.232;10.566;2023-08-17T09:09:43;101087.59;;;20.60;100.00
76853;BME280;65825;52.232;10.566;2023-08-17T09:12:09;101091.25;;;20.59;100.00
76853;BME280;65825;52.232;10.566;2023-08-17T09:14:35;101085.13;;;20.57;100.00
76853;BME280;65825;52.232;10.566;2023-08-17T09:17:02;101095.28;;;20.52;100.00
76853;BME280;65825;52.232;10.566;2023-08-17T09:19:27;101086.19;;;20.28;100.00
76853;BME280;65825;52.232;10.566;2023-08-17T09:21:53;101082.25;;;20.19;100.00
76853;BME280;65825;52.232;10.566;2023-08-17T09:24:18;101088.22;;;20.10;100.00
76853;BME280;65825;52.232;10.566;2023-08-17T09:26:43;101092.59;;;19.97;100.00
76853;BME280;65825;52.232;10.566;2023-08-17T09:29:16;101091.47;;;20.01;100.00
76853;BME280;65825;52.232;10.566;2023-08-17T09:31:41;101088.22;;;19.96;100.00
76853;BME280;65825;52.232;10.566;2023-08-17T09:34:06;101083.56;;;19.86;100.00
76853;BME280;65825;52.232;10.566;2023-08-17T09:36:34;101086.09;;;19.87;100.00
76853;BME280;65825;52.232;10.566;2023-08-17T09:39:00;101080.09;;;19.84;100.00
76853;BME280;65825;52.232;10.566;2023-08-17T09:41:26;101077.59;;;19.95;100.00
76853;BME280;65825;52.232;10.566;2023-08-17T09:43:51;101080.66;;;20.03;100.00
76853;BME280;65825;52.232;10.566;2023-08-17T09:46:19;101086.19;;;20.00;100.00
76853;BME280;65825;52.232;10.566;2023-08-17T09:48:44;101084.56;;;19.97;100.00
76853;BME280;65825;52.232;10.566;2023-08-17T09:51:10;101081.03;;;19.97;100.00
76853;BME280;65825;52.232;10.566;2023-08-17T09:53:36;101087.34;;;19.96;100.00
76853;BME280;65825;52.232;10.566;2023-08-17T09:56:05;101096.06;;;19.99;100.00
76853;BME280;65825;52.232;10.566;2023-08-17T09:58:32;101084.97;;;19.91;100.00
76853;BME280;65825;52.232;10.566;2023-08-17T10:00:57;101082.59;;;19.87;100.00
76853;BME280;65825;52.232;10.566;2023-08-17T10:03:25;101086.81;;;19.77;100.00
76853;BME280;65825;52.232;10.566;2023-08-17T10:05:55;101084.41;;;19.72;100.00
76853;BME280;65825;52.232;10.566;2023-08-17T10:08:24;101088.72;;;19.61;100.00
76853;BME280;65825;52.232;10.566;2023-08-17T10:10:51;101090.81;;;19.42;100.00
76853;BME280;65825;52.232;10.566;2023-08-17T10:13:28;101085.06;;;19.48;100.00
76853;BME280;65825;52.232;10.566;2023-08-17T10:18:45;101088.50;;;19.36;100.00
76853;BME280;65825;52.232;10.566;2023-08-17T10:21:20;101097.69;;;19.46;100.00
76853;BME280;65825;52.232;10.566;2023-08-17T10:23:47;101090.03;;;19.54;100.00
76853;BME280;65825;52.232;10.566;2023-08-17T10:26:13;101088.31;;;19.53;100.00
76853;BME280;65825;52.232;10.566;2023-08-17T10:28:38;101094.44;;;19.69;100.00
76853;BME280;65825;52.232;10.566;2023-08-17T10:31:04;101084.78;;;19.66;100.00
76853;BME280;65825;52.232;10.566;2023-08-17T10:33:30;101093.50;;;19.56;100.00
76853;BME280;65825;52.232;10.566;2023-08-17T10:35:56;101093.88;;;19.36;100.00
76853;BME280;65825;52.232;10.566;2023-08-17T10:38:21;101091.09;;;19.37;100.00
76853;BME280;65825;52.232;10.566;2023-08-17T10:40:47;101097.16;;;19.55;100.00
76853;BME280;65825;52.232;10.566;2023-08-17T10:43:35;101093.13;;;19.62;100.00
76853;BME280;65825;52.232;10.566;2023-08-17T10:46:16;101091.09;;;19.65;100.00
76853;BME280;65825;52.232;10.566;2023-08-17T10:48:44;101090.22;;;19.93;100.00
76853;BME280;65825;52.232;10.566;2023-08-17T10:51:09;101091.47;;;20.01;100.00
76853;BME280;65825;52.232;10.566;2023-08-17T10:53:39;101091.56;;;20.00;100.00
76853;BME280;65825;52.232;10.566;2023-08-17T10:56:11;101085.78;;;20.06;100.00
76853;BME280;65825;52.232;10.566;2023-08-17T10:58:37;101087.81;;;20.30;100.00
76853;BME280;65825;52.232;10.566;2023-08-17T11:01:02;101083.59;;;20.26;100.00
76853;BME280;65825;52.232;10.566;2023-08-17T11:03:28;101087.00;;;20.42;100.00
76853;BME280;65825;52.232;10.566;2023-08-17T11:05:53;101089.28;;;20.48;100.00
76853;BME280;65825;52.232;10.566;2023-08-17T11:08:50;101082.84;;;20.51;100.00
76853;BME280;65825;52.232;10.566;2023-08-17T11:11:15;101077.16;;;21.21;100.00
76853;BME280;65825;52.232;10.566;2023-08-17T11:13:45;101071.91;;;21.57;100.00
76853;BME280;65825;52.232;10.566;2023-08-17T11:16:12;101083.59;;;21.81;100.00
76853;BME280;65825;52.232;10.566;2023-08-17T11:18:38;101084.25;;;21.84;100.00
76853;BME280;65825;52.232;10.566;2023-08-17T11:21:05;101093.38;;;21.94;100.00
76853;BME280;65825;52.232;10.566;2023-08-17T11:23:32;101086.94;;;21.22;100.00
76853;BME280;65825;52.232;10.566;2023-08-17T11:25:58;101094.97;;;20.83;100.00
76853;BME280;65825;52.232;10.566;2023-08-17T11:28:23;101100.50;;;20.67;100.00
76853;BME280;65825;52.232;10.566;2023-08-17T11:31:06;101098.22;;;20.35;100.00
76853;BME280;65825;52.232;10.566;2023-08-17T11:33:32;101083.28;;;20.31;100.00
76853;BME280;65825;52.232;10.566;2023-08-17T11:35:59;101095.69;;;20.46;100.00
76853;BME280;65825;52.232;10.566;2023-08-17T11:38:34;101100.38;;;20.56;100.00
76853;BME280;65825;52.232;10.566;2023-08-17T11:41:00;101098.25;;;20.61;100.00
76853;BME280;65825;52.232;10.566;2023-08-17T11:43:30;101087.44;;;21.14;100.00
76853;BME280;65825;52.232;10.566;2023-08-17T11:45:56;101092.09;;;20.86;100.00
76853;BME280;65825;52.232;10.566;2023-08-17T11:48:22;101097.63;;;20.44;100.00
76853;BME280;65825;52.232;10.566;2023-08-17T11:50:48;101099.28;;;20.32;100.00
76853;BME280;65825;52.232;10.566;2023-08-17T11:53:14;101098.28;;;20.47;100.00
76853;BME280;65825;52.232;10.566;2023-08-17T11:55:39;101104.56;;;20.20;100.00
76853;BME280;65825;52.232;10.566;2023-08-17T11:58:04;101103.72;;;20.05;100.00
76853;BME280;65825;52.232;10.566;2023-08-17T12:00:35;101092.72;;;19.82;100.00
76853;BME280;65825;52.232;10.566;2023-08-17T12:03:03;101092.53;;;20.13;100.00
76853;BME280;65825;52.232;10.566;2023-08-17T12:05:30;101100.34;;;20.30;100.00
76853;BME280;65825;52.232;10.566;2023-08-17T12:07:55;101094.59;;;20.22;100.00
76853;BME280;65825;52.232;10.566;2023-08-17T12:10:21;101097.16;;;20.37;100.00
76853;BME280;65825;52.232;10.566;2023-08-17T12:12:47;101093.03;;;20.32;100.00
76853;BME280;65825;52.232;10.566;2023-08-17T12:15:13;101097.69;;;20.16;100.00
76853;BME280;65825;52.232;10.566;2023-08-17T12:17:49;101099.13;;;20.07;100.00
76853;BME280;65825;52.232;10.566;2023-08-17T12:20:18;101093.19;;;20.02;100.00
76853;BME280;65825;52.232;10.566;2023-08-17T12:22:45;101086.22;;;20.14;100.00
76853;BME280;65825;52.232;10.566;2023-08-17T12:25:10;101087.53;;;20.21;100.00
76853;BME280;65825;52.232;10.566;2023-08-17T12:27:36;101089.06;;;20.25;100.00
76853;BME280;65825;52.232;10.566;2023-08-17T12:30:01;101085.91;;;20.04;100.00